메인 페이지
METAR-TAF:

METAR-TAF

공항 :

규므리, 아르메니아

위도: 40-45-01N, 경도: 043-51-33E, 고도: 1524m

현재 날씨관측

예보는 17분 전, 10:30시(UTC)에 발표되었습니다.
여러 방향의 바람 1kt
온도 -3°C
습도 54%
기압 1016 hPa
시정: 9000m

METAR: UDSG 181030Z VRB01KT 9000 NSC M03/M11 Q1016 R02/CLRD70 NOSIG

시각: 14:47 (10:47 UTC)

예보

예보는 5 시간 38분 전, 05:09시(UTC)에 발표되었습니다.
예보 대상 시간: 18일 06시부터 19일 06시까지 (UTC)
서남서8kt
시정 10km 이상
고도 4000ft 상공 구름 보통
일시적
18일 06시부터 18일 12시까지 (UTC)
시정: 5000m
고도 3000ft 상공 구름 많음
박무

TAF: UDSG 180509Z 1806/1906 24008KT 9999 SCT040 TEMPO 1806/1812 5000 BR BKN030

4,000개 이상의 공항 관측 자료 및 예보 (METAR 및 TAF 보고).

지도상에서 검색 가능한 기상관측소가 노란 점과 빨간 점으로 표시되어 있습니다.

기상관측소 명을 보려면 표시 위로 마우스를 이동하세요.

날씨 관측과 예보를 보려면 클릭하세요.

지도 변경 : 확대하려면 엑스 표시가 있는 녹색 버튼, 축소하려면 빼기 표시가 있는 녹색 버튼, 다음 페이지의 지도를 보려면 녹색 화살표를 클릭하세요.


METAR-TAF: